Time;durP1;ratioP1;P1;durP2;ratioP2;P2;SDS_P1;SDS_P2;PMS_P1;PMS_P2;Temp;Humidity;BMP_temperature;BMP_pressure;BME280_temperature;BME280_humidity;BME280_pressure;Samples;Min_cycle;Max_cycle;Signal;HPM_P1;HPM_P2
2021/11/11 00:00:50;;;;;;;14.95;10.00;;;12.90;83.70;;;;;;5057264;28;20028;-77
2021/11/11 00:03:16;;;;;;;14.82;9.02;;;12.90;83.80;;;;;;5057197;28;20545;-78
2021/11/11 00:05:42;;;;;;;14.43;9.20;;;12.90;83.70;;;;;;5057081;28;20516;-77
2021/11/11 00:08:08;;;;;;;12.93;9.82;;;12.90;83.70;;;;;;5057179;28;20055;-79
2021/11/11 00:10:34;;;;;;;15.02;9.98;;;12.90;83.70;;;;;;5057132;28;20594;-77
2021/11/11 00:13:00;;;;;;;17.33;9.60;;;12.90;83.70;;;;;;5075133;28;20056;-78
2021/11/11 00:15:27;;;;;;;13.07;9.40;;;12.90;83.70;;;;;;5056887;28;20020;-78
2021/11/11 00:17:54;;;;;;;13.38;9.23;;;12.90;83.70;;;;;;5057218;28;20028;-77
2021/11/11 00:20:24;;;;;;;14.60;9.23;;;12.90;83.80;;;;;;5074931;28;20024;-78
2021/11/11 00:22:50;;;;;;;13.50;9.60;;;12.90;83.90;;;;;;5057027;28;20181;-77
2021/11/11 00:25:19;;;;;;;12.88;9.30;;;12.90;83.90;;;;;;5074661;28;20137;-77
2021/11/11 00:27:46;;;;;;;14.57;9.57;;;12.90;83.90;;;;;;5074826;28;20024;-77
2021/11/11 00:30:15;;;;;;;14.30;10.02;;;12.90;83.80;;;;;;5056981;28;20029;-78
2021/11/11 00:32:41;;;;;;;14.00;9.52;;;12.90;83.80;;;;;;5056838;28;20123;-77
2021/11/11 00:35:09;;;;;;;12.55;8.90;;;12.90;84.20;;;;;;5056569;28;20024;-77
2021/11/11 00:37:35;;;;;;;13.85;9.40;;;12.90;83.90;;;;;;5074515;28;20128;-77
2021/11/11 00:40:00;;;;;;;12.77;9.45;;;12.90;83.90;;;;;;5056554;28;20551;-77
2021/11/11 00:42:26;;;;;;;12.63;9.18;;;12.90;83.90;;;;;;5056507;28;20089;-77
2021/11/11 00:44:51;;;;;;;13.38;9.20;;;12.90;83.90;;;;;;5056663;28;20090;-78
2021/11/11 00:47:17;;;;;;;14.38;9.65;;;12.90;83.90;;;;;;5074424;28;20060;-77
2021/11/11 00:49:44;;;;;;;12.82;9.25;;;12.90;83.90;;;;;;5056590;28;20029;-77
2021/11/11 00:52:11;;;;;;;14.13;9.82;;;12.90;83.90;;;;;;5056369;28;20078;-77
2021/11/11 00:54:39;;;;;;;15.98;9.75;;;12.90;83.90;;;;;;5074015;28;20059;-77
2021/11/11 00:57:05;;;;;;;13.13;9.70;;;12.90;83.80;;;;;;5056343;28;20032;-79
2021/11/11 00:59:31;;;;;;;14.85;9.65;;;12.90;83.80;;;;;;5074052;28;20052;-77
2021/11/11 01:01:56;;;;;;;16.73;9.63;;;12.90;83.90;;;;;;5056208;28;20044;-77
2021/11/11 01:04:22;;;;;;;13.88;9.45;;;12.90;83.90;;;;;;5074084;28;20095;-77
2021/11/11 01:06:48;;;;;;;17.30;10.18;;;12.90;83.90;;;;;;5055882;28;20021;-77
2021/11/11 01:09:14;;;;;;;18.85;10.18;;;12.90;83.90;;;;;;5073974;28;20029;-79
2021/11/11 01:11:42;;;;;;;14.45;10.20;;;12.90;83.90;;;;;;5055964;28;20025;-78
2021/11/11 01:14:07;;;;;;;14.27;9.82;;;12.90;83.90;;;;;;5055951;28;20024;-78
2021/11/11 01:16:33;;;;;;;15.05;9.80;;;12.90;83.90;;;;;;5073744;28;20036;-77
2021/11/11 01:18:58;;;;;;;14.13;9.35;;;12.90;83.90;;;;;;5073200;28;20449;-77
2021/11/11 01:21:24;;;;;;;14.23;9.77;;;12.90;83.90;;;;;;5055757;28;20047;-78
2021/11/11 01:23:49;;;;;;;15.23;9.45;;;12.90;84.00;;;;;;5056012;28;20021;-77
2021/11/11 01:26:15;;;;;;;13.75;9.65;;;12.90;84.00;;;;;;5073377;28;20025;-77
2021/11/11 01:28:41;;;;;;;14.02;9.25;;;12.90;84.00;;;;;;5055815;28;20025;-77
2021/11/11 01:31:07;;;;;;;13.57;9.75;;;12.90;84.10;;;;;;5055634;28;20455;-77
2021/11/11 01:33:32;;;;;;;13.77;9.48;;;12.90;84.20;;;;;;5055624;28;20064;-77
2021/11/11 01:35:59;;;;;;;13.85;9.70;;;12.90;84.10;;;;;;5055359;28;20127;-77
2021/11/11 01:38:24;;;;;;;13.70;9.27;;;12.90;83.80;;;;;;5055497;28;20033;-77
2021/11/11 01:40:50;;;;;;;14.07;9.65;;;12.90;83.70;;;;;;5055308;28;20025;-77
2021/11/11 01:43:16;;;;;;;14.00;9.98;;;13.00;84.20;;;;;;5055417;28;20521;-77
2021/11/11 01:45:43;;;;;;;12.30;9.05;;;13.00;83.60;;;;;;5073243;28;20052;-77
2021/11/11 01:48:12;;;;;;;14.80;9.43;;;13.00;83.50;;;;;;5073211;28;20024;-77
2021/11/11 01:50:40;;;;;;;13.95;10.00;;;13.00;83.40;;;;;;5073055;28;20029;-77
2021/11/11 01:53:09;;;;;;;15.05;9.98;;;13.00;83.40;;;;;;5054987;28;20079;-77
2021/11/11 01:55:36;;;;;;;17.13;9.95;;;13.10;83.40;;;;;;5072691;28;20105;-77
2021/11/11 01:58:02;;;;;;;14.63;9.68;;;13.00;83.30;;;;;;5073138;28;20087;-77
2021/11/11 02:00:33;;;;;;;15.68;9.70;;;13.10;83.40;;;;;;5055039;28;20516;-77
2021/11/11 02:03:01;;;;;;;13.80;9.35;;;13.00;83.30;;;;;;5055301;28;20059;-78
2021/11/11 02:05:27;;;;;;;13.50;9.10;;;13.10;83.30;;;;;;5054881;28;20031;-78
2021/11/11 02:07:53;;;;;;;15.55;9.30;;;13.10;83.30;;;;;;5054956;28;20113;-78
2021/11/11 02:10:21;;;;;;;13.48;9.38;;;13.10;83.80;;;;;;5054986;28;20036;-78
2021/11/11 02:12:47;;;;;;;13.00;9.38;;;13.10;83.30;;;;;;5072880;28;20021;-78
2021/11/11 02:15:14;;;;;;;15.13;9.82;;;13.10;83.20;;;;;;5054822;28;20123;-78
2021/11/11 02:17:41;;;;;;;14.55;9.60;;;13.10;83.20;;;;;;5054915;28;20032;-78
2021/11/11 02:20:13;;;;;;;23.27;10.27;;;13.00;83.30;;;;;;5054996;28;20048;-78
2021/11/11 02:22:40;;;;;;;19.33;9.70;;;13.00;83.50;;;;;;5054712;28;20024;-77
2021/11/11 02:25:09;;;;;;;17.92;9.60;;;13.00;83.80;;;;;;5054672;28;20048;-77
2021/11/11 02:27:35;;;;;;;15.88;10.23;;;12.90;84.00;;;;;;5054708;28;20032;-78
2021/11/11 02:30:01;;;;;;;14.93;9.88;;;12.90;84.10;;;;;;5053836;28;20037;-77
2021/11/11 02:32:32;;;;;;;15.73;11.00;;;12.90;84.20;;;;;;5054627;28;20028;-77
2021/11/11 02:34:58;;;;;;;15.68;10.27;;;12.90;84.20;;;;;;5072546;28;20021;-78
2021/11/11 02:37:28;;;;;;;14.73;9.82;;;12.90;84.20;;;;;;5054350;28;20031;-78
2021/11/11 02:39:54;;;;;;;14.95;9.95;;;12.90;84.40;;;;;;5054626;28;20021;-78
2021/11/11 02:42:21;;;;;;;13.57;9.45;;;12.90;84.50;;;;;;5054604;28;20025;-78
2021/11/11 02:44:47;;;;;;;14.60;10.07;;;12.90;84.40;;;;;;5054765;28;20516;-78
2021/11/11 02:47:13;;;;;;;14.40;9.45;;;12.90;84.60;;;;;;5054451;28;20021;-78
2021/11/11 02:49:38;;;;;;;13.20;9.38;;;12.90;84.60;;;;;;5072395;28;20028;-78
2021/11/11 02:52:05;;;;;;;15.93;10.07;;;12.90;84.70;;;;;;5054305;28;20509;-78
2021/11/11 02:54:38;;;;;;;13.20;9.52;;;12.80;84.60;;;;;;5072118;28;20028;-78
2021/11/11 02:57:20;;;;;;;14.15;9.85;;;12.90;84.60;;;;;;5054239;28;20070;-78
2021/11/11 02:59:47;;;;;;;13.63;9.75;;;12.90;84.60;;;;;;5072429;28;20028;-77
2021/11/11 03:02:31;;;;;;;13.38;9.77;;;12.80;84.60;;;;;;5072410;28;20012;-77
2021/11/11 03:04:57;;;;;;;13.50;9.73;;;12.80;84.50;;;;;;5054301;28;20165;-77
2021/11/11 03:07:24;;;;;;;14.40;10.20;;;12.80;84.50;;;;;;5054174;28;20025;-79
2021/11/11 03:09:50;;;;;;;14.98;10.20;;;12.80;84.50;;;;;;5054286;28;20024;-78
2021/11/11 03:12:17;;;;;;;14.68;9.70;;;12.80;84.60;;;;;;5054326;28;20400;-77
2021/11/11 03:14:44;;;;;;;15.85;9.77;;;12.80;84.50;;;;;;5054192;28;20056;-77
2021/11/11 03:17:11;;;;;;;14.88;9.88;;;12.80;84.60;;;;;;5054305;28;20036;-77
2021/11/11 03:19:37;;;;;;;14.95;10.15;;;12.80;84.60;;;;;;5054196;28;20501;-77
2021/11/11 03:22:09;;;;;;;12.70;9.63;;;12.90;84.60;;;;;;5050804;28;20033;-78
2021/11/11 03:24:36;;;;;;;;;;;12.80;84.50;;;;;;5052591;28;20025;-78
2021/11/11 03:27:02;;;;;;;14.90;9.00;;;12.90;84.60;;;;;;5033964;28;19935;-77
2021/11/11 03:29:29;;;;;;;14.02;9.48;;;12.80;84.50;;;;;;5034215;28;20028;-77
2021/11/11 03:31:55;;;;;;;13.80;9.70;;;12.90;84.50;;;;;;5034169;28;20053;-77
2021/11/11 03:34:23;;;;;;;13.35;9.40;;;12.80;84.40;;;;;;5051957;28;20521;-77
2021/11/11 03:36:50;;;;;;;14.23;10.07;;;12.80;84.50;;;;;;5051931;28;20013;-77
2021/11/11 03:39:17;;;;;;;14.75;9.95;;;12.90;84.50;;;;;;5034096;28;20025;-77
2021/11/11 03:41:43;;;;;;;13.93;9.43;;;12.80;84.50;;;;;;5034971;28;20021;-77
2021/11/11 03:44:08;;;;;;;15.68;9.80;;;12.80;84.50;;;;;;5055526;28;20490;-78
2021/11/11 03:46:34;;;;;;;13.73;9.40;;;12.90;84.50;;;;;;5055517;28;20056;-78
2021/11/11 03:49:00;;;;;;;14.65;9.77;;;12.80;84.50;;;;;;5055370;28;20028;-78
2021/11/11 03:51:26;;;;;;;15.07;10.00;;;12.90;84.60;;;;;;5055203;28;20036;-78
2021/11/11 03:53:52;;;;;;;14.63;9.75;;;12.80;84.60;;;;;;5055385;28;20036;-78
2021/11/11 03:56:18;;;;;;;14.55;9.63;;;12.90;84.60;;;;;;5037108;28;20552;-78
2021/11/11 03:58:45;;;;;;;16.27;9.50;;;12.90;84.60;;;;;;5037461;28;20501;-78
2021/11/11 04:01:12;;;;;;;13.52;8.98;;;12.90;84.70;;;;;;5037219;28;20082;-78
2021/11/11 04:03:38;;;;;;;15.77;10.02;;;12.90;84.60;;;;;;5037409;28;20071;-78
2021/11/11 04:06:04;;;;;;;14.35;9.68;;;12.90;84.60;;;;;;5037159;28;20025;-78
2021/11/11 04:08:30;;;;;;;16.40;10.07;;;12.80;84.60;;;;;;5055159;28;20043;-78
2021/11/11 04:10:55;;;;;;;14.35;9.73;;;12.90;84.60;;;;;;5055007;28;20033;-78
2021/11/11 04:13:22;;;;;;;14.50;9.77;;;12.90;84.60;;;;;;5055206;28;20051;-78
2021/11/11 04:15:47;;;;;;;13.32;9.43;;;12.90;84.60;;;;;;5037039;28;20075;-77
2021/11/11 04:18:13;;;;;;;13.60;9.98;;;12.90;84.60;;;;;;5037109;28;20029;-78
2021/11/11 04:20:39;;;;;;;15.57;9.52;;;12.90;84.70;;;;;;5037083;28;20067;-78
2021/11/11 04:23:04;;;;;;;14.85;10.10;;;12.80;84.60;;;;;;5054910;28;20040;-77
2021/11/11 04:28:30;;;;;;;13.27;9.38;;;12.90;84.70;;;;;;5031799;28;20505;-78
2021/11/11 04:31:00;;;;;;;13.85;9.55;;;12.90;84.70;;;;;;5036791;28;20025;-77
2021/11/11 04:33:26;;;;;;;12.77;9.07;;;12.90;84.60;;;;;;5054648;28;20024;-77
2021/11/11 04:35:58;;;;;;;13.18;9.30;;;12.90;84.60;;;;;;5036645;28;20036;-77
2021/11/11 04:46:27;;;;;;;14.15;9.63;;;12.90;84.50;;;;;;5054297;28;20429;-77
2021/11/11 04:52:09;;;;;;;14.02;9.45;;;12.90;84.40;;;;;;5112658;22;20039;-76
2021/11/11 05:05:25;;;;;;;13.07;9.52;;;13.00;84.00;;;;;;5053791;28;20447;-75
2021/11/11 05:07:52;;;;;;;13.77;9.70;;;13.00;84.00;;;;;;5036149;28;20117;-75
2021/11/11 05:10:18;;;;;;;14.02;9.27;;;13.00;83.90;;;;;;5053876;28;20021;-75
2021/11/11 05:12:44;;;;;;;14.15;9.40;;;13.00;83.90;;;;;;5035936;28;20071;-76
2021/11/11 05:15:10;;;;;;;13.98;9.40;;;13.00;84.40;;;;;;5035812;28;20029;-76
2021/11/11 05:17:36;;;;;;;14.23;9.15;;;13.00;83.90;;;;;;5035819;28;20108;-75
2021/11/11 05:20:02;;;;;;;12.80;9.20;;;13.00;83.80;;;;;;5053553;28;20436;-75
2021/11/11 05:22:28;;;;;;;12.13;8.88;;;13.00;83.80;;;;;;5053035;28;20033;-75
2021/11/11 05:24:53;;;;;;;12.80;9.23;;;13.00;83.80;;;;;;5035690;28;20151;-76
2021/11/11 05:27:22;;;;;;;13.77;9.95;;;13.00;83.80;;;;;;5035427;28;20070;-76
2021/11/11 05:29:50;;;;;;;13.75;9.27;;;13.00;83.80;;;;;;5035602;28;20390;-75
2021/11/11 05:32:15;;;;;;;13.77;8.70;;;13.00;84.10;;;;;;5034032;28;20032;-77
2021/11/11 05:34:41;;;;;;;14.40;9.13;;;12.90;84.30;;;;;;5017400;28;20033;-77
2021/11/11 05:37:07;;;;;;;12.77;9.20;;;12.90;84.30;;;;;;5033176;28;20034;-76
2021/11/11 05:39:33;;;;;;;13.80;9.32;;;12.90;84.50;;;;;;5015746;28;20030;-75
2021/11/11 05:42:00;;;;;;;13.30;9.32;;;12.90;84.60;;;;;;5033338;28;20029;-76
2021/11/11 05:44:25;;;;;;;13.60;9.13;;;12.80;84.60;;;;;;5033333;28;20097;-78
2021/11/11 05:46:52;;;;;;;14.18;8.82;;;12.80;84.70;;;;;;5033043;28;20052;-75
2021/11/11 05:49:18;;;;;;;13.82;9.68;;;12.80;84.70;;;;;;5031951;28;20025;-77
2021/11/11 05:51:44;;;;;;;12.77;8.98;;;12.80;84.70;;;;;;5031748;28;20032;-77
2021/11/11 05:54:10;;;;;;;12.98;8.90;;;12.80;84.70;;;;;;5031461;28;20033;-75
2021/11/11 05:56:36;;;;;;;13.15;9.38;;;12.80;84.80;;;;;;5031511;28;20033;-77
2021/11/11 05:59:03;;;;;;;13.32;9.43;;;12.80;84.80;;;;;;5015296;28;20075;-76
2021/11/11 06:01:28;;;;;;;13.68;8.85;;;12.80;84.70;;;;;;5032872;28;20498;-77
2021/11/11 06:03:54;;;;;;;12.85;8.85;;;12.80;84.70;;;;;;5015139;28;20147;-77
2021/11/11 06:06:19;;;;;;;12.50;8.73;;;12.80;84.70;;;;;;5032409;28;20042;-77
2021/11/11 06:08:45;;;;;;;13.20;9.20;;;12.80;84.80;;;;;;5014919;28;20031;-77
2021/11/11 06:11:10;;;;;;;14.77;8.57;;;12.80;84.70;;;;;;5011799;28;20029;-76
2021/11/11 06:13:36;;;;;;;14.98;9.00;;;12.80;84.70;;;;;;5014287;28;20057;-79
2021/11/11 06:16:02;;;;;;;11.95;8.90;;;12.80;84.70;;;;;;5030575;28;20037;-77
2021/11/11 06:18:30;;;;;;;14.15;9.23;;;12.80;84.70;;;;;;5012222;28;20025;-77
2021/11/11 06:21:01;;;;;;;12.98;8.60;;;12.70;84.60;;;;;;5029246;28;20036;-77
2021/11/11 06:23:28;;;;;;;13.10;8.98;;;12.70;84.60;;;;;;5046890;28;20025;-77
2021/11/11 06:25:55;;;;;;;13.57;9.52;;;12.80;84.60;;;;;;5048314;28;20055;-76
2021/11/11 06:28:21;;;;;;;13.98;9.40;;;12.80;84.70;;;;;;5029969;28;20535;-76
2021/11/11 06:30:48;;;;;;;13.57;9.18;;;12.80;84.70;;;;;;5030907;28;20603;-76
2021/11/11 06:33:13;;;;;;;13.60;8.75;;;12.80;84.60;;;;;;5033444;28;20028;-78
2021/11/11 06:35:39;;;;;;;15.27;9.70;;;12.80;84.60;;;;;;5032856;28;20036;-78
2021/11/11 06:38:05;;;;;;;13.77;9.00;;;12.80;84.60;;;;;;5034570;28;20025;-79
2021/11/11 06:40:32;;;;;;;12.23;8.77;;;12.80;84.60;;;;;;5051865;28;20094;-78
2021/11/11 06:42:59;;;;;;;13.75;9.43;;;12.80;84.70;;;;;;5051128;28;20432;-78
2021/11/11 06:45:26;;;;;;;13.13;8.60;;;12.80;84.60;;;;;;5051992;28;20028;-78
2021/11/11 06:47:53;;;;;;;14.80;10.07;;;12.80;84.60;;;;;;5030477;28;20379;-79
2021/11/11 06:50:19;;;;;;;13.57;9.27;;;12.80;84.00;;;;;;5050557;28;20556;-78
2021/11/11 06:52:45;;;;;;;13.85;9.57;;;12.80;83.60;;;;;;5031064;28;20033;-76
2021/11/11 06:55:11;;;;;;;15.35;8.88;;;12.70;83.80;;;;;;5048481;28;20037;-75
2021/11/11 06:57:37;;;;;;;15.60;8.95;;;12.80;84.10;;;;;;5047910;28;20056;-75
2021/11/11 07:00:09;;;;;;;14.73;9.48;;;12.80;84.20;;;;;;5048160;28;20060;-76
2021/11/11 07:02:35;;;;;;;13.07;9.40;;;12.80;84.30;;;;;;5030432;28;20120;-75
2021/11/11 07:05:00;;;;;;;12.63;8.95;;;12.80;84.40;;;;;;5030785;28;20124;-75
2021/11/11 07:07:26;;;;;;;13.63;9.55;;;12.80;84.40;;;;;;5048374;28;20075;-76
2021/11/11 07:09:52;;;;;;;14.25;9.98;;;12.80;84.50;;;;;;5030237;28;20115;-77
2021/11/11 07:12:17;;;;;;;14.95;9.57;;;12.80;84.60;;;;;;5030478;28;20057;-76
2021/11/11 07:14:44;;;;;;;13.75;10.10;;;12.80;84.60;;;;;;5030593;28;20029;-78
2021/11/11 07:17:10;;;;;;;13.25;9.65;;;12.80;84.60;;;;;;5049866;28;20021;-76
2021/11/11 07:19:35;;;;;;;13.85;10.15;;;12.80;84.60;;;;;;5034256;28;20036;-75
2021/11/11 07:22:03;;;;;;;14.60;9.88;;;12.80;84.60;;;;;;5052149;28;20049;-75
2021/11/11 07:24:30;;;;;;;14.32;10.00;;;12.80;84.60;;;;;;5052157;28;20032;-77
2021/11/11 07:26:56;;;;;;;14.38;9.93;;;12.80;84.60;;;;;;5034205;28;20025;-76
2021/11/11 07:29:21;;;;;;;14.63;9.73;;;12.80;84.60;;;;;;5052139;28;20017;-76
2021/11/11 07:31:51;;;;;;;13.38;9.15;;;12.80;84.60;;;;;;5028911;28;20044;-77
2021/11/11 07:34:17;;;;;;;12.23;9.35;;;12.80;84.50;;;;;;5032506;28;20059;-76
2021/11/11 07:36:44;;;;;;;12.18;9.30;;;12.80;84.50;;;;;;5033355;28;20029;-75
2021/11/11 07:39:10;;;;;;;14.45;9.65;;;12.80;84.50;;;;;;5033659;28;20055;-75
2021/11/11 07:41:37;;;;;;;13.95;9.80;;;12.80;84.50;;;;;;5051103;28;20074;-76
2021/11/11 07:44:03;;;;;;;13.82;9.65;;;12.80;84.50;;;;;;5051221;28;20021;-77
2021/11/11 07:46:29;;;;;;;14.45;9.98;;;12.80;84.40;;;;;;5033153;28;20060;-77
2021/11/11 07:48:54;;;;;;;14.13;10.57;;;12.80;84.40;;;;;;5051617;28;20052;-76
2021/11/11 07:51:20;;;;;;;14.35;9.73;;;12.80;84.40;;;;;;5032391;28;20116;-77
2021/11/11 07:53:45;;;;;;;14.93;10.35;;;12.80;84.40;;;;;;5029438;28;20438;-78
2021/11/11 07:56:11;;;;;;;16.30;10.15;;;12.80;84.40;;;;;;5028925;28;20111;-76
2021/11/11 07:58:36;;;;;;;15.30;9.68;;;12.80;84.30;;;;;;5047219;28;20551;-76
2021/11/11 08:01:02;;;;;;;13.90;9.45;;;12.80;84.20;;;;;;5029308;28;20440;-77
2021/11/11 08:03:27;;;;;;;15.07;10.07;;;12.90;84.20;;;;;;5029406;28;20072;-78
2021/11/11 08:05:53;;;;;;;15.73;10.13;;;12.90;84.20;;;;;;5047169;28;20031;-77
2021/11/11 08:08:19;;;;;;;17.65;10.57;;;12.90;84.10;;;;;;5031044;28;20120;-77
2021/11/11 08:10:44;;;;;;;15.18;10.90;;;12.90;84.00;;;;;;5048891;28;20437;-76
2021/11/11 08:13:10;;;;;;;15.50;10.43;;;12.90;84.00;;;;;;5031060;28;20086;-76
2021/11/11 08:15:36;;;;;;;13.32;9.85;;;13.00;84.00;;;;;;5030762;28;20490;-76
2021/11/11 08:18:03;;;;;;;14.30;9.70;;;12.90;83.80;;;;;;5030762;28;20083;-76
2021/11/11 08:20:28;;;;;;;13.88;9.63;;;13.00;83.80;;;;;;5030833;28;20111;-77
2021/11/11 08:22:54;;;;;;;16.13;10.18;;;13.00;83.70;;;;;;5030678;28;20121;-77
2021/11/11 08:25:20;;;;;;;14.10;9.65;;;13.00;83.70;;;;;;5048318;28;20024;-78
2021/11/11 08:27:49;;;;;;;15.45;10.43;;;13.00;83.70;;;;;;5048506;28;20436;-76
2021/11/11 08:30:16;;;;;;;14.80;10.40;;;13.00;83.70;;;;;;5030612;28;20051;-76
2021/11/11 08:32:44;;;;;;;14.00;9.70;;;13.00;83.60;;;;;;5048258;28;20040;-75
2021/11/11 08:35:11;;;;;;;16.08;10.43;;;13.00;83.60;;;;;;5048767;28;20025;-78
2021/11/11 08:37:40;;;;;;;15.13;10.23;;;13.00;83.60;;;;;;5048298;28;20044;-77
2021/11/11 08:40:06;;;;;;;15.40;10.50;;;12.90;83.70;;;;;;5030429;28;20036;-76
2021/11/11 08:42:32;;;;;;;15.48;10.50;;;12.90;83.80;;;;;;5030323;28;20025;-76
2021/11/11 08:44:57;;;;;;;15.68;10.40;;;12.90;83.90;;;;;;5030710;28;20040;-77
2021/11/11 08:47:23;;;;;;;15.05;10.27;;;12.90;84.00;;;;;;5047722;28;20025;-77
2021/11/11 08:49:52;;;;;;;13.77;10.20;;;12.90;84.10;;;;;;5030249;28;20043;-78
2021/11/11 08:52:18;;;;;;;15.05;10.57;;;12.80;84.10;;;;;;5037454;28;20032;-77
2021/11/11 08:54:44;;;;;;;23.98;11.18;;;12.80;84.10;;;;;;5047499;28;20497;-78
2021/11/11 08:57:10;;;;;;;17.00;10.63;;;12.80;83.30;;;;;;5029657;28;20032;-77
2021/11/11 08:59:36;;;;;;;17.88;11.50;;;12.80;83.10;;;;;;5047710;28;20021;-78
2021/11/11 09:02:02;;;;;;;18.50;10.80;;;12.80;83.40;;;;;;5029679;28;20040;-77
2021/11/11 09:04:28;;;;;;;15.43;10.65;;;12.80;83.60;;;;;;5028204;28;20327;-78
2021/11/11 09:06:53;;;;;;;16.27;10.73;;;13.00;83.80;;;;;;5027967;28;20033;-77
2021/11/11 09:09:20;;;;;;;16.63;10.77;;;12.80;83.60;;;;;;5029965;28;20468;-77
2021/11/11 09:11:47;;;;;;;16.63;11.30;;;12.80;83.50;;;;;;5030594;28;20044;-77
2021/11/11 09:14:12;;;;;;;16.75;10.88;;;12.80;83.60;;;;;;5029802;28;20036;-76
2021/11/11 09:16:38;;;;;;;17.02;10.52;;;12.80;83.50;;;;;;5047466;28;20021;-78
2021/11/11 09:19:04;;;;;;;15.93;10.40;;;12.80;83.50;;;;;;5047308;28;20032;-77
2021/11/11 09:21:32;;;;;;;15.30;10.73;;;12.90;83.40;;;;;;5029610;28;20036;-77
2021/11/11 09:23:58;;;;;;;14.80;11.13;;;12.90;83.40;;;;;;5029668;28;20025;-77
2021/11/11 09:26:24;;;;;;;14.82;10.25;;;12.90;83.40;;;;;;5047362;28;20025;-78
2021/11/11 09:28:50;;;;;;;17.48;10.50;;;13.00;83.10;;;;;;5029984;28;20021;-77
2021/11/11 09:31:16;;;;;;;15.88;10.75;;;13.00;83.10;;;;;;5029664;28;20509;-78
2021/11/11 09:33:44;;;;;;;15.43;10.75;;;13.00;83.40;;;;;;5029093;28;20031;-77
2021/11/11 09:36:15;;;;;;;16.65;11.15;;;13.00;82.50;;;;;;5029414;28;20293;-76
2021/11/11 09:38:41;;;;;;;18.52;10.82;;;13.10;82.60;;;;;;5029251;28;20481;-78
2021/11/11 09:41:06;;;;;;;14.00;10.57;;;13.20;82.70;;;;;;5047384;28;20025;-76
2021/11/11 09:43:34;;;;;;;15.32;10.77;;;13.20;82.40;;;;;;5049863;28;20621;-76
2021/11/11 09:46:00;;;;;;;17.33;10.95;;;13.20;82.20;;;;;;5047249;28;20364;-77
2021/11/11 09:48:26;;;;;;;16.00;11.02;;;13.30;82.10;;;;;;5029228;28;20031;-77
2021/11/11 09:50:52;;;;;;;16.92;10.55;;;13.30;82.00;;;;;;5029337;28;20044;-77
2021/11/11 09:53:23;;;;;;;14.43;10.30;;;13.30;82.00;;;;;;5028802;28;20041;-77
2021/11/11 09:58:43;;;;;;;13.85;10.30;;;13.30;81.80;;;;;;5047078;28;20035;-78
2021/11/11 10:01:15;;;;;;;15.13;9.82;;;13.30;81.70;;;;;;5029164;28;20029;-76
2021/11/11 10:03:42;;;;;;;;;;;13.30;81.60;;;;;;5046890;28;20025;-76
2021/11/11 10:06:13;;;;;;;16.00;11.00;;;13.30;81.60;;;;;;5028516;28;19912;-78
2021/11/11 10:08:40;;;;;;;15.57;10.85;;;13.40;81.30;;;;;;5028904;28;20025;-76
2021/11/11 10:11:26;;;;;;;15.82;10.63;;;13.40;81.10;;;;;;5029050;28;20166;-76
2021/11/11 10:14:14;;;;;;;14.85;11.13;;;13.50;81.10;;;;;;5028273;28;20025;-77
2021/11/11 10:16:42;;;;;;;13.57;10.02;;;13.50;80.90;;;;;;5046186;28;20025;-78
2021/11/11 10:19:08;;;;;;;14.48;10.80;;;13.50;80.90;;;;;;5046405;28;20502;-78
2021/11/11 10:21:49;;;;;;;14.88;9.98;;;13.60;80.80;;;;;;5046060;28;20040;-77
2021/11/11 10:24:20;;;;;;;14.70;10.20;;;13.60;80.60;;;;;;5028533;28;20456;-77
2021/11/11 10:26:55;;;;;;;14.02;10.35;;;13.60;80.50;;;;;;5046090;28;20032;-77
2021/11/11 10:29:31;;;;;;;15.38;10.48;;;13.60;80.50;;;;;;5046337;28;20029;-78
2021/11/11 10:32:22;;;;;;;15.75;10.70;;;13.60;80.60;;;;;;5028443;28;20482;-77
2021/11/11 10:34:59;;;;;;;14.25;11.05;;;13.60;80.70;;;;;;5028546;28;20039;-78
2021/11/11 10:37:30;;;;;;;14.30;10.05;;;13.60;80.70;;;;;;5028056;28;20028;-77
2021/11/11 10:40:00;;;;;;;15.35;10.68;;;13.50;80.70;;;;;;5028278;28;20028;-76
2021/11/11 10:42:29;;;;;;;14.75;10.15;;;13.50;81.20;;;;;;5028164;28;20102;-78
2021/11/11 10:44:56;;;;;;;15.02;10.68;;;13.50;81.00;;;;;;5028683;28;20025;-76
2021/11/11 10:47:31;;;;;;;15.35;10.77;;;13.50;81.00;;;;;;5028010;28;20024;-78
2021/11/11 10:49:59;;;;;;;15.38;10.90;;;13.50;81.00;;;;;;5028233;28;20025;-76
2021/11/11 10:52:32;;;;;;;15.15;11.07;;;13.40;81.10;;;;;;5030894;28;20033;-77
2021/11/11 10:55:04;;;;;;;15.35;10.57;;;13.40;81.10;;;;;;5033980;28;20037;-77
2021/11/11 10:57:36;;;;;;;15.77;11.25;;;13.40;81.30;;;;;;5051882;28;20036;-77
2021/11/11 11:00:12;;;;;;;17.00;11.07;;;13.40;81.20;;;;;;5034407;28;20037;-77
2021/11/11 11:02:52;;;;;;;14.68;10.77;;;13.30;81.20;;;;;;5052120;28;20021;-77
2021/11/11 11:05:19;;;;;;;16.95;11.40;;;13.30;81.70;;;;;;5034471;28;20021;-77
2021/11/11 11:07:46;;;;;;;18.20;12.13;;;13.30;81.50;;;;;;5034398;28;20486;-76
2021/11/11 11:10:16;;;;;;;17.15;11.43;;;13.30;81.50;;;;;;5052670;28;20025;-77
2021/11/11 11:12:42;;;;;;;17.33;11.90;;;13.40;81.40;;;;;;5031778;28;20032;-76
2021/11/11 11:15:08;;;;;;;16.08;11.88;;;13.40;81.30;;;;;;5031855;28;20025;-77
2021/11/11 11:17:33;;;;;;;16.20;12.23;;;13.40;81.20;;;;;;5031891;28;20082;-78
2021/11/11 11:20:20;;;;;;;17.25;11.13;;;13.40;81.30;;;;;;5049618;28;20029;-77
2021/11/11 11:22:46;;;;;;;17.73;11.93;;;13.40;81.30;;;;;;5031611;28;20627;-76
2021/11/11 11:25:11;;;;;;;17.42;12.02;;;13.40;81.30;;;;;;5031899;28;20033;-76
2021/11/11 11:27:37;;;;;;;16.30;11.98;;;13.40;81.30;;;;;;5031580;28;20322;-76
2021/11/11 11:30:17;;;;;;;16.23;11.88;;;13.40;81.40;;;;;;5031764;28;20029;-76
2021/11/11 11:32:44;;;;;;;16.88;11.85;;;13.40;81.40;;;;;;5049316;28;20044;-76
2021/11/11 11:35:12;;;;;;;17.92;11.85;;;13.40;81.40;;;;;;5049221;28;20063;-76
2021/11/11 11:37:38;;;;;;;16.50;11.65;;;13.40;81.50;;;;;;5031651;28;20033;-76
2021/11/11 11:40:14;;;;;;;18.15;11.93;;;13.50;81.70;;;;;;5031560;28;20116;-75
2021/11/11 11:42:43;;;;;;;18.50;11.82;;;13.30;81.70;;;;;;5049481;28;20067;-77
2021/11/11 11:45:15;;;;;;;15.35;11.45;;;13.30;81.90;;;;;;5031118;28;20021;-76
2021/11/11 11:47:53;;;;;;;18.13;12.88;;;13.30;82.30;;;;;;5031439;28;20056;-76
2021/11/11 11:50:29;;;;;;;15.18;11.55;;;13.20;82.40;;;;;;5031298;28;20036;-76
2021/11/11 11:53:01;;;;;;;15.18;11.95;;;13.20;82.80;;;;;;5031104;28;20036;-78
2021/11/11 12:03:43;;;;;;;17.95;13.45;;;13.10;83.00;;;;;;5048459;28;20025;-77
2021/11/11 12:08:51;;;;;;;16.88;12.75;;;13.10;83.30;;;;;;5048810;28;20040;-75
2021/11/11 12:16:47;;;;;;;19.20;13.23;;;13.10;83.50;;;;;;5048261;28;20033;-76
2021/11/11 12:39:49;;;;;;;18.20;12.88;;;13.10;83.60;;;;;;5048266;28;20075;-78
2021/11/11 12:42:31;;;;;;;19.25;14.32;;;13.10;83.60;;;;;;5047709;28;20025;-75
2021/11/11 12:45:09;;;;;;;17.42;13.50;;;13.10;83.60;;;;;;5047820;28;20025;-76
2021/11/11 12:47:42;;;;;;;19.15;13.70;;;13.10;83.60;;;;;;5029722;28;20022;-75
2021/11/11 12:50:25;;;;;;;20.45;13.82;;;13.10;83.60;;;;;;5047600;28;20025;-76
2021/11/11 12:53:10;;;;;;;19.98;13.75;;;13.10;83.70;;;;;;5029724;28;20040;-77
2021/11/11 12:55:41;;;;;;;19.33;13.45;;;13.10;83.70;;;;;;5029202;28;20029;-77
2021/11/11 12:58:11;;;;;;;22.88;14.00;;;13.10;83.70;;;;;;5047791;28;20071;-77
2021/11/11 13:00:45;;;;;;;21.02;14.40;;;13.00;83.60;;;;;;5047313;28;20037;-76
2021/11/11 13:03:11;;;;;;;21.15;14.50;;;13.10;83.60;;;;;;5047479;28;20095;-77
2021/11/11 13:05:46;;;;;;;20.92;14.48;;;13.10;83.70;;;;;;5029086;28;20471;-76
2021/11/11 13:08:15;;;;;;;19.17;13.63;;;13.10;83.70;;;;;;5047341;28;20028;-76
2021/11/11 13:11:02;;;;;;;23.20;13.85;;;13.10;83.70;;;;;;5029355;28;20029;-77
2021/11/11 13:13:28;;;;;;;20.77;14.60;;;13.10;83.70;;;;;;5046887;28;20250;-76
2021/11/11 13:16:01;;;;;;;20.65;14.30;;;13.00;83.70;;;;;;5028601;28;20028;-77
2021/11/11 13:18:48;;;;;;;22.65;14.32;;;13.00;83.70;;;;;;5047083;28;20021;-77
2021/11/11 13:21:54;;;;;;;19.52;14.18;;;13.00;83.90;;;;;;5029028;28;20541;-77
2021/11/11 16:24:33;;;;;;;25.38;16.20;;;12.90;85.50;;;;;;5054889;28;20017;-74
2021/11/11 16:27:01;;;;;;;24.67;16.15;;;12.80;85.60;;;;;;5036374;28;20017;-75
2021/11/11 16:29:27;;;;;;;25.00;15.50;;;12.80;85.70;;;;;;5054137;28;20045;-75
2021/11/11 16:31:54;;;;;;;22.77;15.45;;;12.80;85.70;;;;;;5036042;28;20098;-75
2021/11/11 16:34:20;;;;;;;23.30;15.98;;;12.80;85.90;;;;;;5053948;28;20090;-75
2021/11/11 16:36:46;;;;;;;20.73;15.20;;;12.90;85.90;;;;;;5036278;28;20490;-75
2021/11/11 16:39:14;;;;;;;25.13;16.33;;;12.80;85.90;;;;;;5082618;22;20131;-79
2021/11/11 16:41:40;;;;;;;22.67;16.35;;;12.80;86.00;;;;;;5075011;28;20033;-80